sensor_id;sensor_type;location;lat;lon;timestamp;pressure;altitude;pressure_sealevel;temperature;humidity
62103;BME280;48077;48.104;11.702;2022-11-21T00:02:20;94746.44;;;2.20;100.00
62103;BME280;48077;48.104;11.702;2022-11-21T00:04:43;94743.00;;;2.26;100.00
62103;BME280;48077;48.104;11.702;2022-11-21T00:07:07;94737.34;;;2.22;100.00
62103;BME280;48077;48.104;11.702;2022-11-21T00:09:30;94735.91;;;2.20;100.00
62103;BME280;48077;48.104;11.702;2022-11-21T00:11:56;94735.91;;;2.20;100.00
62103;BME280;48077;48.104;11.702;2022-11-21T00:14:19;94752.53;;;2.27;100.00
62103;BME280;48077;48.104;11.702;2022-11-21T00:16:44;94748.69;;;2.23;100.00
62103;BME280;48077;48.104;11.702;2022-11-21T00:19:07;94755.19;;;2.27;100.00
62103;BME280;48077;48.104;11.702;2022-11-21T00:21:31;94746.25;;;2.21;100.00
62103;BME280;48077;48.104;11.702;2022-11-21T00:23:54;94749.91;;;2.27;100.00
62103;BME280;48077;48.104;11.702;2022-11-21T00:26:18;94752.53;;;2.27;100.00
62103;BME280;48077;48.104;11.702;2022-11-21T00:28:41;94751.09;;;2.25;100.00
62103;BME280;48077;48.104;11.702;2022-11-21T00:31:05;94753.13;;;2.22;100.00
62103;BME280;48077;48.104;11.702;2022-11-21T00:33:29;94730.22;;;2.16;100.00
62103;BME280;48077;48.104;11.702;2022-11-21T00:35:52;94740.78;;;2.23;100.00
62103;BME280;48077;48.104;11.702;2022-11-21T00:38:16;94742.81;;;2.21;100.00
62103;BME280;48077;48.104;11.702;2022-11-21T00:40:41;94735.72;;;2.15;100.00
62103;BME280;48077;48.104;11.702;2022-11-21T00:43:05;94726.19;;;2.14;100.00
62103;BME280;48077;48.104;11.702;2022-11-21T00:45:28;94728.44;;;2.17;100.00
62103;BME280;48077;48.104;11.702;2022-11-21T00:47:54;94725.59;;;2.18;100.00
62103;BME280;48077;48.104;11.702;2022-11-21T00:50:17;94723.16;;;2.17;100.00
62103;BME280;48077;48.104;11.702;2022-11-21T00:52:40;94729.84;;;2.19;100.00
62103;BME280;48077;48.104;11.702;2022-11-21T00:55:04;94706.97;;;2.13;100.00
62103;BME280;48077;48.104;11.702;2022-11-21T00:57:27;94718.91;;;2.22;100.00
62103;BME280;48077;48.104;11.702;2022-11-21T00:59:51;94711.25;;;2.21;100.00
62103;BME280;48077;48.104;11.702;2022-11-21T01:02:14;94705.38;;;2.19;100.00
62103;BME280;48077;48.104;11.702;2022-11-21T01:04:38;94722.75;;;2.20;100.00
62103;BME280;48077;48.104;11.702;2022-11-21T01:07:01;94713.22;;;2.12;100.00
62103;BME280;48077;48.104;11.702;2022-11-21T01:09:25;94713.84;;;2.14;100.00
62103;BME280;48077;48.104;11.702;2022-11-21T01:11:50;94710.38;;;2.07;100.00
62103;BME280;48077;48.104;11.702;2022-11-21T01:14:14;94715.03;;;2.12;100.00
62103;BME280;48077;48.104;11.702;2022-11-21T01:16:37;94695.00;;;2.04;100.00
62103;BME280;48077;48.104;11.702;2022-11-21T01:19:01;94710.78;;;2.04;100.00
62103;BME280;48077;48.104;11.702;2022-11-21T01:21:26;94713.03;;;2.07;100.00
62103;BME280;48077;48.104;11.702;2022-11-21T01:23:50;94725.56;;;2.12;100.00
62103;BME280;48077;48.104;11.702;2022-11-21T01:26:17;94716.44;;;2.08;100.00
62103;BME280;48077;48.104;11.702;2022-11-21T01:28:41;94721.72;;;2.14;100.00
62103;BME280;48077;48.104;11.702;2022-11-21T01:31:16;94716.88;;;2.18;100.00
62103;BME280;48077;48.104;11.702;2022-11-21T01:33:40;94708.97;;;2.11;100.00
62103;BME280;48077;48.104;11.702;2022-11-21T01:36:12;94720.53;;;2.23;100.00
62103;BME280;48077;48.104;11.702;2022-11-21T01:38:36;94704.94;;;2.22;100.00
62103;BME280;48077;48.104;11.702;2022-11-21T01:40:59;94697.06;;;2.15;100.00
62103;BME280;48077;48.104;11.702;2022-11-21T01:43:22;94712.84;;;2.29;100.00
62103;BME280;48077;48.104;11.702;2022-11-21T01:45:55;94679.81;;;2.06;100.00
62103;BME280;48077;48.104;11.702;2022-11-21T01:48:27;94708.19;;;2.24;100.00
62103;BME280;48077;48.104;11.702;2022-11-21T01:50:53;94713.47;;;2.31;100.00
62103;BME280;48077;48.104;11.702;2022-11-21T01:53:18;94695.84;;;2.25;100.00
62103;BME280;48077;48.104;11.702;2022-11-21T01:55:42;94706.78;;;2.28;100.00
62103;BME280;48077;48.104;11.702;2022-11-21T01:58:05;94716.50;;;2.41;100.00
62103;BME280;48077;48.104;11.702;2022-11-21T02:00:31;94700.53;;;2.36;100.00
62103;BME280;48077;48.104;11.702;2022-11-21T02:03:02;94699.72;;;2.42;100.00
62103;BME280;48077;48.104;11.702;2022-11-21T02:05:30;94687.97;;;2.38;100.00
62103;BME280;48077;48.104;11.702;2022-11-21T02:08:02;94693.25;;;2.45;100.00
62103;BME280;48077;48.104;11.702;2022-11-21T02:10:26;94673.19;;;2.37;100.00
62103;BME280;48077;48.104;11.702;2022-11-21T02:12:51;94686.75;;;2.47;100.00
62103;BME280;48077;48.104;11.702;2022-11-21T02:15:17;94676.03;;;2.42;100.00
62103;BME280;48077;48.104;11.702;2022-11-21T02:17:41;94669.97;;;2.48;100.00
62103;BME280;48077;48.104;11.702;2022-11-21T02:20:06;94663.06;;;2.40;100.00
62103;BME280;48077;48.104;11.702;2022-11-21T02:25:16;94661.66;;;2.45;100.00
62103;BME280;48077;48.104;11.702;2022-11-21T02:27:41;94651.94;;;2.38;100.00
62103;BME280;48077;48.104;11.702;2022-11-21T02:30:06;94666.31;;;2.42;100.00
62103;BME280;48077;48.104;11.702;2022-11-21T02:32:36;94659.03;;;2.38;100.00
62103;BME280;48077;48.104;11.702;2022-11-21T02:34:59;94666.94;;;2.38;100.00
62103;BME280;48077;48.104;11.702;2022-11-21T02:37:23;94644.25;;;2.30;100.00
62103;BME280;48077;48.104;11.702;2022-11-21T02:39:47;94646.47;;;2.27;100.00
62103;BME280;48077;48.104;11.702;2022-11-21T02:42:27;94644.84;;;2.26;100.00
62103;BME280;48077;48.104;11.702;2022-11-21T02:47:24;94641.81;;;2.22;100.00
62103;BME280;48077;48.104;11.702;2022-11-21T02:49:55;94635.31;;;2.25;100.00
62103;BME280;48077;48.104;11.702;2022-11-21T02:52:19;94635.31;;;2.25;100.00
62103;BME280;48077;48.104;11.702;2022-11-21T02:54:42;94641.00;;;2.28;100.00
62103;BME280;48077;48.104;11.702;2022-11-21T02:57:05;94628.66;;;2.22;100.00
62103;BME280;48077;48.104;11.702;2022-11-21T02:59:29;94652.13;;;2.30;100.00
62103;BME280;48077;48.104;11.702;2022-11-21T03:01:52;94636.34;;;2.17;100.00
62103;BME280;48077;48.104;11.702;2022-11-21T03:04:16;94646.47;;;2.20;100.00
62103;BME280;48077;48.104;11.702;2022-11-21T03:06:39;94638.75;;;2.18;100.00
62103;BME280;48077;48.104;11.702;2022-11-21T03:09:02;94641.41;;;2.25;100.00
62103;BME280;48077;48.104;11.702;2022-11-21T03:11:26;94635.94;;;2.13;100.00
62103;BME280;48077;48.104;11.702;2022-11-21T03:13:49;94640.38;;;2.26;100.00
62103;BME280;48077;48.104;11.702;2022-11-21T03:16:12;94636.97;;;2.26;100.00
62103;BME280;48077;48.104;11.702;2022-11-21T03:18:36;94624.81;;;2.18;100.00
62103;BME280;48077;48.104;11.702;2022-11-21T03:21:00;94631.50;;;2.34;100.00
62103;BME280;48077;48.104;11.702;2022-11-21T03:23:23;94617.75;;;2.25;100.00
62103;BME280;48077;48.104;11.702;2022-11-21T03:25:49;94603.97;;;2.30;100.00
62103;BME280;48077;48.104;11.702;2022-11-21T03:28:13;94616.09;;;2.31;100.00
62103;BME280;48077;48.104;11.702;2022-11-21T03:30:36;94605.19;;;2.27;100.00
62103;BME280;48077;48.104;11.702;2022-11-21T03:33:00;94608.81;;;2.19;100.00
62103;BME280;48077;48.104;11.702;2022-11-21T03:35:24;94612.47;;;2.25;100.00
62103;BME280;48077;48.104;11.702;2022-11-21T03:37:47;94600.50;;;2.22;100.00
62103;BME280;48077;48.104;11.702;2022-11-21T03:40:11;94592.63;;;2.16;100.00
62103;BME280;48077;48.104;11.702;2022-11-21T03:42:35;94602.16;;;2.17;100.00
62103;BME280;48077;48.104;11.702;2022-11-21T03:44:58;94605.97;;;2.14;100.00
62103;BME280;48077;48.104;11.702;2022-11-21T03:47:21;94607.19;;;2.12;100.00
62103;BME280;48077;48.104;11.702;2022-11-21T03:49:46;94600.09;;;2.06;100.00
62103;BME280;48077;48.104;11.702;2022-11-21T03:52:10;94605.16;;;2.07;100.00
62103;BME280;48077;48.104;11.702;2022-11-21T03:54:33;94598.69;;;2.03;100.00
62103;BME280;48077;48.104;11.702;2022-11-21T03:56:56;94589.78;;;1.97;100.00
62103;BME280;48077;48.104;11.702;2022-11-21T03:59:20;94584.50;;;1.97;100.00
62103;BME280;48077;48.104;11.702;2022-11-21T04:01:43;94580.66;;;1.93;100.00
62103;BME280;48077;48.104;11.702;2022-11-21T04:04:06;94567.13;;;1.90;100.00
62103;BME280;48077;48.104;11.702;2022-11-21T04:06:30;94582.91;;;1.96;100.00
62103;BME280;48077;48.104;11.702;2022-11-21T04:08:53;94564.50;;;1.90;100.00
62103;BME280;48077;48.104;11.702;2022-11-21T04:11:17;94578.44;;;2.03;100.00
62103;BME280;48077;48.104;11.702;2022-11-21T04:13:40;94563.47;;;1.97;100.00
62103;BME280;48077;48.104;11.702;2022-11-21T04:16:04;94583.09;;;2.08;100.00
62103;BME280;48077;48.104;11.702;2022-11-21T04:18:27;94572.81;;;2.07;100.00
62103;BME280;48077;48.104;11.702;2022-11-21T04:20:58;94567.31;;;2.08;100.00
62103;BME280;48077;48.104;11.702;2022-11-21T04:23:22;94560.44;;;2.07;100.00
62103;BME280;48077;48.104;11.702;2022-11-21T04:25:45;94564.47;;;2.16;100.00
62103;BME280;48077;48.104;11.702;2022-11-21T04:28:11;94568.31;;;2.20;100.00
62103;BME280;48077;48.104;11.702;2022-11-21T04:30:35;94559.44;;;2.21;100.00
62103;BME280;48077;48.104;11.702;2022-11-21T04:32:59;94562.88;;;2.29;100.00
62103;BME280;48077;48.104;11.702;2022-11-21T04:35:23;94570.53;;;2.37;100.00
62103;BME280;48077;48.104;11.702;2022-11-21T04:37:47;94573.78;;;2.46;100.00
62103;BME280;48077;48.104;11.702;2022-11-21T04:40:11;94566.09;;;2.51;100.00
62103;BME280;48077;48.104;11.702;2022-11-21T04:42:34;94552.13;;;2.50;100.00
62103;BME280;48077;48.104;11.702;2022-11-21T04:44:58;94566.06;;;2.57;100.00
62103;BME280;48077;48.104;11.702;2022-11-21T04:47:21;94568.31;;;2.60;100.00
62103;BME280;48077;48.104;11.702;2022-11-21T04:49:44;94560.41;;;2.60;100.00
62103;BME280;48077;48.104;11.702;2022-11-21T04:52:08;94556.75;;;2.55;100.00
62103;BME280;48077;48.104;11.702;2022-11-21T04:54:31;94571.72;;;2.68;100.00
62103;BME280;48077;48.104;11.702;2022-11-21T04:56:54;94569.88;;;2.68;100.00
62103;BME280;48077;48.104;11.702;2022-11-21T04:59:20;94559.38;;;2.61;100.00
62103;BME280;48077;48.104;11.702;2022-11-21T05:01:43;94569.88;;;2.68;100.00
62103;BME280;48077;48.104;11.702;2022-11-21T05:04:07;94544.84;;;2.52;100.00
62103;BME280;48077;48.104;11.702;2022-11-21T05:06:30;94554.34;;;2.53;100.00
62103;BME280;48077;48.104;11.702;2022-11-21T05:08:53;94560.81;;;2.57;100.00
62103;BME280;48077;48.104;11.702;2022-11-21T05:11:17;94554.94;;;2.55;100.00
62103;BME280;48077;48.104;11.702;2022-11-21T05:13:59;94541.19;;;2.47;100.00
62103;BME280;48077;48.104;11.702;2022-11-21T05:16:22;94548.88;;;2.55;100.00
62103;BME280;48077;48.104;11.702;2022-11-21T05:18:46;94524.38;;;2.41;100.00
62103;BME280;48077;48.104;11.702;2022-11-21T05:21:09;94521.94;;;2.39;100.00
62103;BME280;48077;48.104;11.702;2022-11-21T05:23:32;94532.06;;;2.49;100.00
62103;BME280;48077;48.104;11.702;2022-11-21T05:25:56;94514.25;;;2.45;100.00
62103;BME280;48077;48.104;11.702;2022-11-21T05:28:19;94515.28;;;2.37;100.00
62103;BME280;48077;48.104;11.702;2022-11-21T05:30:42;94523.38;;;2.42;100.00
62103;BME280;48077;48.104;11.702;2022-11-21T05:33:06;94521.75;;;2.41;100.00
62103;BME280;48077;48.104;11.702;2022-11-21T05:35:29;94520.97;;;2.34;100.00
62103;BME280;48077;48.104;11.702;2022-11-21T05:37:56;94533.31;;;2.40;100.00
62103;BME280;48077;48.104;11.702;2022-11-21T05:40:20;94524.81;;;2.38;100.00
62103;BME280;48077;48.104;11.702;2022-11-21T05:42:43;94515.09;;;2.32;100.00
62103;BME280;48077;48.104;11.702;2022-11-21T05:45:25;94524.00;;;2.31;100.00
62103;BME280;48077;48.104;11.702;2022-11-21T05:47:49;94528.44;;;2.37;100.00
62103;BME280;48077;48.104;11.702;2022-11-21T05:50:12;94530.66;;;2.33;100.00
62103;BME280;48077;48.104;11.702;2022-11-21T05:52:35;94532.09;;;2.36;100.00
62103;BME280;48077;48.104;11.702;2022-11-21T05:54:59;94525.22;;;2.28;100.00
62103;BME280;48077;48.104;11.702;2022-11-21T05:57:22;94534.13;;;2.34;100.00
62103;BME280;48077;48.104;11.702;2022-11-21T05:59:45;94536.34;;;2.30;100.00
62103;BME280;48077;48.104;11.702;2022-11-21T06:02:09;94534.53;;;2.31;100.00
62103;BME280;48077;48.104;11.702;2022-11-21T06:04:51;94533.13;;;2.28;100.00
62103;BME280;48077;48.104;11.702;2022-11-21T06:07:14;94522.59;;;2.21;100.00
62103;BME280;48077;48.104;11.702;2022-11-21T06:09:37;94536.53;;;2.29;100.00
62103;BME280;48077;48.104;11.702;2022-11-21T06:12:01;94536.34;;;2.30;100.00
62103;BME280;48077;48.104;11.702;2022-11-21T06:14:24;94535.94;;;2.27;100.00
62103;BME280;48077;48.104;11.702;2022-11-21T06:16:49;94530.50;;;2.21;100.00
62103;BME280;48077;48.104;11.702;2022-11-21T06:19:12;94534.53;;;2.24;100.00
62103;BME280;48077;48.104;11.702;2022-11-21T06:21:35;94536.16;;;2.25;100.00
62103;BME280;48077;48.104;11.702;2022-11-21T06:23:59;94554.97;;;2.35;100.00
62103;BME280;48077;48.104;11.702;2022-11-21T06:26:24;94562.03;;;2.35;100.00
62103;BME280;48077;48.104;11.702;2022-11-21T06:28:48;94545.84;;;2.31;100.00
62103;BME280;48077;48.104;11.702;2022-11-21T06:33:37;94556.38;;;2.31;100.00
62103;BME280;48077;48.104;11.702;2022-11-21T06:36:08;94548.09;;;2.34;100.00
62103;BME280;48077;48.104;11.702;2022-11-21T06:38:32;94558.22;;;2.44;100.00
62103;BME280;48077;48.104;11.702;2022-11-21T06:40:56;94556.78;;;2.41;100.00
62103;BME280;48077;48.104;11.702;2022-11-21T06:43:19;94564.06;;;2.46;100.00
62103;BME280;48077;48.104;11.702;2022-11-21T06:45:42;94554.34;;;2.47;100.00
62103;BME280;48077;48.104;11.702;2022-11-21T06:48:06;94548.06;;;2.41;100.00
62103;BME280;48077;48.104;11.702;2022-11-21T06:50:30;94553.94;;;2.43;100.00
62103;BME280;48077;48.104;11.702;2022-11-21T06:52:56;94556.38;;;2.45;100.00
62103;BME280;48077;48.104;11.702;2022-11-21T06:55:19;94566.88;;;2.51;100.00
62103;BME280;48077;48.104;11.702;2022-11-21T06:57:44;94579.22;;;2.57;100.00
62103;BME280;48077;48.104;11.702;2022-11-21T07:00:07;94572.38;;;2.56;100.00
62103;BME280;48077;48.104;11.702;2022-11-21T07:02:31;94581.25;;;2.62;100.00
62103;BME280;48077;48.104;11.702;2022-11-21T07:04:54;94574.38;;;2.54;100.00
62103;BME280;48077;48.104;11.702;2022-11-21T07:07:18;94585.09;;;2.66;100.00
62103;BME280;48077;48.104;11.702;2022-11-21T07:09:41;94587.13;;;2.64;100.00
62103;BME280;48077;48.104;11.702;2022-11-21T07:12:07;94580.84;;;2.65;100.00
62103;BME280;48077;48.104;11.702;2022-11-21T07:14:49;94595.19;;;2.76;100.00
62103;BME280;48077;48.104;11.702;2022-11-21T07:17:12;94583.06;;;2.68;100.00
62103;BME280;48077;48.104;11.702;2022-11-21T07:19:36;94584.88;;;2.68;100.00
62103;BME280;48077;48.104;11.702;2022-11-21T07:21:59;94592.75;;;2.74;100.00
62103;BME280;48077;48.104;11.702;2022-11-21T07:24:23;94577.19;;;2.59;100.00
62103;BME280;48077;48.104;11.702;2022-11-21T07:26:46;94605.31;;;2.72;100.00
62103;BME280;48077;48.104;11.702;2022-11-21T07:29:09;94602.09;;;2.70;100.00
62103;BME280;48077;48.104;11.702;2022-11-21T07:31:33;94603.13;;;2.69;100.00
62103;BME280;48077;48.104;11.702;2022-11-21T07:33:56;94614.47;;;2.70;100.00
62103;BME280;48077;48.104;11.702;2022-11-21T07:36:19;94609.38;;;2.68;100.00
62103;BME280;48077;48.104;11.702;2022-11-21T07:38:45;94589.75;;;2.57;100.00
62103;BME280;48077;48.104;11.702;2022-11-21T07:41:08;94607.19;;;2.65;100.00
62103;BME280;48077;48.104;11.702;2022-11-21T07:43:32;94606.97;;;2.60;100.00
62103;BME280;48077;48.104;11.702;2022-11-21T07:45:55;94607.78;;;2.54;100.00
62103;BME280;48077;48.104;11.702;2022-11-21T07:48:19;94618.13;;;2.55;100.00
62103;BME280;48077;48.104;11.702;2022-11-21T07:50:42;94619.94;;;2.55;100.00
62103;BME280;48077;48.104;11.702;2022-11-21T07:53:07;94628.66;;;2.55;100.00
62103;BME280;48077;48.104;11.702;2022-11-21T07:55:31;94621.16;;;2.52;100.00
62103;BME280;48077;48.104;11.702;2022-11-21T07:58:00;94614.28;;;2.51;100.00
62103;BME280;48077;48.104;11.702;2022-11-21T08:00:23;94607.78;;;2.47;100.00
62103;BME280;48077;48.104;11.702;2022-11-21T08:02:47;94632.69;;;2.58;100.00
62103;BME280;48077;48.104;11.702;2022-11-21T08:05:10;94631.47;;;2.54;100.00
62103;BME280;48077;48.104;11.702;2022-11-21T08:07:34;94620.13;;;2.53;100.00
62103;BME280;48077;48.104;11.702;2022-11-21T08:09:57;94633.09;;;2.61;100.00
62103;BME280;48077;48.104;11.702;2022-11-21T08:12:21;94631.69;;;2.66;100.00
62103;BME280;48077;48.104;11.702;2022-11-21T08:14:44;94630.44;;;2.68;100.00
62103;BME280;48077;48.104;11.702;2022-11-21T08:17:08;94636.94;;;2.72;100.00
62103;BME280;48077;48.104;11.702;2022-11-21T08:19:31;94645.03;;;2.77;100.00
62103;BME280;48077;48.104;11.702;2022-11-21T08:21:55;94641.38;;;2.72;100.00
62103;BME280;48077;48.104;11.702;2022-11-21T08:24:18;94645.25;;;2.76;100.00
62103;BME280;48077;48.104;11.702;2022-11-21T08:26:43;94645.25;;;2.76;100.00
62103;BME280;48077;48.104;11.702;2022-11-21T08:29:06;94623.97;;;2.64;100.00
62103;BME280;48077;48.104;11.702;2022-11-21T08:31:29;94636.31;;;2.77;100.00
62103;BME280;48077;48.104;11.702;2022-11-21T08:33:56;94646.84;;;2.83;100.00
62103;BME280;48077;48.104;11.702;2022-11-21T08:36:19;94649.06;;;2.80;100.00
62103;BME280;48077;48.104;11.702;2022-11-21T08:38:43;94654.75;;;2.83;100.00
62103;BME280;48077;48.104;11.702;2022-11-21T08:41:06;94641.59;;;2.83;100.00
62103;BME280;48077;48.104;11.702;2022-11-21T08:43:48;94649.88;;;2.94;100.00
62103;BME280;48077;48.104;11.702;2022-11-21T08:46:11;94650.25;;;2.97;100.00
62103;BME280;48077;48.104;11.702;2022-11-21T08:48:35;94638.72;;;2.98;100.00
62103;BME280;48077;48.104;11.702;2022-11-21T08:50:59;94644.38;;;3.02;100.00
62103;BME280;48077;48.104;11.702;2022-11-21T08:53:22;94650.47;;;3.02;100.00
62103;BME280;48077;48.104;11.702;2022-11-21T08:55:45;94645.59;;;2.99;100.00
62103;BME280;48077;48.104;11.702;2022-11-21T08:58:09;94644.78;;;2.99;100.00
62103;BME280;48077;48.104;11.702;2022-11-21T09:00:32;94650.25;;;3.04;100.00
62103;BME280;48077;48.104;11.702;2022-11-21T09:02:56;94629.38;;;3.02;100.00
62103;BME280;48077;48.104;11.702;2022-11-21T09:05:19;94643.75;;;3.13;100.00
62103;BME280;48077;48.104;11.702;2022-11-21T09:07:42;94637.47;;;3.08;100.00
62103;BME280;48077;48.104;11.702;2022-11-21T09:10:06;94629.16;;;3.11;100.00
62103;BME280;48077;48.104;11.702;2022-11-21T09:12:30;94637.69;;;3.13;100.00
62103;BME280;48077;48.104;11.702;2022-11-21T09:14:53;94626.09;;;3.14;100.00
62103;BME280;48077;48.104;11.702;2022-11-21T09:17:36;94630.47;;;3.33;99.75
62103;BME280;48077;48.104;11.702;2022-11-21T09:20:18;94638.94;;;3.55;98.48
62103;BME280;48077;48.104;11.702;2022-11-21T09:22:42;94641.31;;;3.63;98.38
62103;BME280;48077;48.104;11.702;2022-11-21T09:25:05;94643.94;;;3.70;97.22
62103;BME280;48077;48.104;11.702;2022-11-21T09:27:29;94621.22;;;3.69;96.85
62103;BME280;48077;48.104;11.702;2022-11-21T09:29:53;94628.06;;;3.77;97.70
62103;BME280;48077;48.104;11.702;2022-11-21T09:32:16;94630.66;;;3.90;95.74
62103;BME280;48077;48.104;11.702;2022-11-21T09:34:40;94635.91;;;3.90;95.90
62103;BME280;48077;48.104;11.702;2022-11-21T09:37:03;94624.84;;;4.07;94.57
62103;BME280;48077;48.104;11.702;2022-11-21T09:39:27;94632.63;;;4.26;94.26
62103;BME280;48077;48.104;11.702;2022-11-21T09:49:49;94621.16;;;4.90;91.81
62103;BME280;48077;48.104;11.702;2022-11-21T09:52:16;94612.06;;;4.79;90.21
62103;BME280;48077;48.104;11.702;2022-11-21T09:54:52;94603.88;;;4.87;90.41
62103;BME280;48077;48.104;11.702;2022-11-21T09:57:20;94604.94;;;5.04;88.39
62103;BME280;48077;48.104;11.702;2022-11-21T09:59:45;94608.88;;;4.95;89.06
62103;BME280;48077;48.104;11.702;2022-11-21T10:02:15;94594.56;;;4.84;89.48
62103;BME280;48077;48.104;11.702;2022-11-21T10:04:39;94593.69;;;4.91;88.10
62103;BME280;48077;48.104;11.702;2022-11-21T10:07:05;94595.53;;;4.90;89.24
62103;BME280;48077;48.104;11.702;2022-11-21T10:09:43;94598.09;;;4.97;88.73
62103;BME280;48077;48.104;11.702;2022-11-21T10:12:29;94603.31;;;5.03;88.32
62103;BME280;48077;48.104;11.702;2022-11-21T10:25:54;94591.25;;;5.07;85.43
62103;BME280;48077;48.104;11.702;2022-11-21T10:30:51;94578.03;;;5.07;87.16
62103;BME280;48077;48.104;11.702;2022-11-21T10:33:31;94581.78;;;5.00;87.62
62103;BME280;48077;48.104;11.702;2022-11-21T10:35:58;94591.16;;;4.96;86.65
62103;BME280;48077;48.104;11.702;2022-11-21T10:38:25;94582.38;;;5.02;86.72
62103;BME280;48077;48.104;11.702;2022-11-21T10:41:01;94558.06;;;4.93;87.25
62103;BME280;48077;48.104;11.702;2022-11-21T10:46:19;94574.09;;;4.98;86.60
62103;BME280;48077;48.104;11.702;2022-11-21T10:48:52;94554.25;;;4.89;87.45
62103;BME280;48077;48.104;11.702;2022-11-21T10:51:34;94557.72;;;4.90;87.80
62103;BME280;48077;48.104;11.702;2022-11-21T10:54:06;94556.00;;;4.77;87.97
62103;BME280;48077;48.104;11.702;2022-11-21T10:56:49;94559.91;;;4.74;88.42
62103;BME280;48077;48.104;11.702;2022-11-21T10:59:23;94553.22;;;4.72;89.07
62103;BME280;48077;48.104;11.702;2022-11-21T11:01:59;94551.59;;;4.71;89.70
62103;BME280;48077;48.104;11.702;2022-11-21T11:04:23;94544.72;;;4.70;89.98
62103;BME280;48077;48.104;11.702;2022-11-21T11:06:47;94547.56;;;4.68;90.76
62103;BME280;48077;48.104;11.702;2022-11-21T11:11:46;94532.38;;;4.63;91.50
62103;BME280;48077;48.104;11.702;2022-11-21T11:14:12;94526.50;;;4.61;91.91
62103;BME280;48077;48.104;11.702;2022-11-21T11:16:42;94533.84;;;4.59;92.90
62103;BME280;48077;48.104;11.702;2022-11-21T11:26:33;94500.91;;;4.62;92.26
62103;BME280;48077;48.104;11.702;2022-11-21T11:29:12;94503.75;;;4.60;89.58
62103;BME280;48077;48.104;11.702;2022-11-21T11:31:43;94506.09;;;4.69;88.59
62103;BME280;48077;48.104;11.702;2022-11-21T11:34:11;94487.84;;;4.67;83.10
62103;BME280;48077;48.104;11.702;2022-11-21T11:39:20;94483.09;;;4.76;82.83
62103;BME280;48077;48.104;11.702;2022-11-21T11:47:30;94472.00;;;4.85;81.25
62103;BME280;48077;48.104;11.702;2022-11-21T11:50:09;94462.34;;;4.91;78.62
62103;BME280;48077;48.104;11.702;2022-11-21T11:55:12;94443.66;;;4.93;76.95
62103;BME280;48077;48.104;11.702;2022-11-21T11:57:37;94461.97;;;5.06;76.99
62103;BME280;48077;48.104;11.702;2022-11-21T12:05:24;94469.16;;;5.17;78.20
62103;BME280;48077;48.104;11.702;2022-11-21T12:08:07;94465.72;;;5.17;77.64
62103;BME280;48077;48.104;11.702;2022-11-21T12:10:38;94473.41;;;5.18;77.87
62103;BME280;48077;48.104;11.702;2022-11-21T12:13:24;94476.28;;;5.17;80.92
62103;BME280;48077;48.104;11.702;2022-11-21T12:15:50;94472.16;;;5.21;82.94
62103;BME280;48077;48.104;11.702;2022-11-21T12:23:19;94446.16;;;5.60;86.50
62103;BME280;48077;48.104;11.702;2022-11-21T12:34:33;94422.41;;;5.83;86.70
62103;BME280;48077;48.104;11.702;2022-11-21T12:37:08;94405.84;;;5.88;86.21
62103;BME280;48077;48.104;11.702;2022-11-21T12:39:44;94410.47;;;6.04;86.47
62103;BME280;48077;48.104;11.702;2022-11-21T12:43:07;94410.22;;;6.06;86.58
62103;BME280;48077;48.104;11.702;2022-11-21T12:45:26;94402.63;;;5.98;85.61
62103;BME280;48077;48.104;11.702;2022-11-21T12:57:04;94382.50;;;5.97;87.19
62103;BME280;48077;48.104;11.702;2022-11-21T12:59:38;94386.53;;;5.99;87.53
62103;BME280;48077;48.104;11.702;2022-11-21T13:02:42;94374.66;;;5.90;83.38
62103;BME280;48077;48.104;11.702;2022-11-21T13:05:15;94376.94;;;6.10;83.72
62103;BME280;48077;48.104;11.702;2022-11-21T13:07:39;94359.69;;;6.19;82.95
62103;BME280;48077;48.104;11.702;2022-11-21T13:10:04;94352.56;;;6.20;82.71
62103;BME280;48077;48.104;11.702;2022-11-21T13:15:17;94352.91;;;6.23;82.48
62103;BME280;48077;48.104;11.702;2022-11-21T13:17:49;94337.16;;;6.17;81.42
62103;BME280;48077;48.104;11.702;2022-11-21T13:20:38;94337.25;;;6.10;79.84
62103;BME280;48077;48.104;11.702;2022-11-21T13:23:02;94328.88;;;6.01;80.10
62103;BME280;48077;48.104;11.702;2022-11-21T13:25:39;94344.63;;;6.08;79.95
62103;BME280;48077;48.104;11.702;2022-11-21T13:30:45;94324.50;;;5.95;79.60
62103;BME280;48077;48.104;11.702;2022-11-21T13:33:10;94328.59;;;5.91;79.88
62103;BME280;48077;48.104;11.702;2022-11-21T13:38:16;94316.44;;;5.78;80.41
62103;BME280;48077;48.104;11.702;2022-11-21T13:40:40;94325.16;;;5.79;82.28
62103;BME280;48077;48.104;11.702;2022-11-21T13:43:26;94322.41;;;5.74;83.23
62103;BME280;48077;48.104;11.702;2022-11-21T13:45:51;94327.34;;;5.70;83.97
62103;BME280;48077;48.104;11.702;2022-11-21T13:48:42;94331.28;;;5.67;83.53
62103;BME280;48077;48.104;11.702;2022-11-21T13:51:39;94319.44;;;5.70;82.31
62103;BME280;48077;48.104;11.702;2022-11-21T13:54:40;94317.56;;;5.71;81.85
62103;BME280;48077;48.104;11.702;2022-11-21T13:57:48;94311.03;;;5.61;82.81
62103;BME280;48077;48.104;11.702;2022-11-21T14:08:17;94296.63;;;5.22;84.74
62103;BME280;48077;48.104;11.702;2022-11-21T14:10:40;94267.66;;;5.03;85.92
62103;BME280;48077;48.104;11.702;2022-11-21T14:13:05;94265.13;;;4.97;85.36
62103;BME280;48077;48.104;11.702;2022-11-21T14:15:34;94281.66;;;5.04;86.22
62103;BME280;48077;48.104;11.702;2022-11-21T14:18:02;94277.06;;;4.99;85.59
62103;BME280;48077;48.104;11.702;2022-11-21T14:20:49;94274.91;;;4.96;85.88
62103;BME280;48077;48.104;11.702;2022-11-21T14:23:19;94278.22;;;4.92;86.77
62103;BME280;48077;48.104;11.702;2022-11-21T14:28:33;94271.66;;;4.82;85.42
62103;BME280;48077;48.104;11.702;2022-11-21T14:31:04;94267.63;;;4.80;86.23